Time;durP1;ratioP1;P1;durP2;ratioP2;P2;SDS_P1;SDS_P2;PMS_P1;PMS_P2;Temp;Humidity;BMP_temperature;BMP_pressure;BME280_temperature;BME280_humidity;BME280_pressure;Samples;Min_cycle;Max_cycle;Signal;HPM_P1;HPM_P2
2023/06/09 00:01:22;;;;;;;9.60;8.57;;;;;;;15.33;100.00;99840.06;5015028;28;20249;-60
2023/06/09 00:03:51;;;;;;;9.57;8.67;;;;;;;15.29;100.00;99841.28;5013987;28;20535;-60
2023/06/09 00:06:22;;;;;;;9.23;8.30;;;;;;;15.21;100.00;99830.69;5014185;28;20681;-60
2023/06/09 00:08:51;;;;;;;8.57;7.77;;;;;;;15.19;100.00;99825.63;5013648;28;20566;-60
2023/06/09 00:11:16;;;;;;;9.47;8.63;;;;;;;15.19;100.00;99828.22;5014133;28;20214;-60
2023/06/09 00:13:42;;;;;;;10.17;9.27;;;;;;;15.15;100.00;99821.63;5020689;28;20249;-59
2023/06/09 00:16:07;;;;;;;9.40;8.60;;;;;;;15.11;100.00;99815.88;5014545;28;20241;-59
2023/06/09 00:18:34;;;;;;;9.63;8.73;;;;;;;15.15;100.00;99827.63;5014964;28;20203;-59
2023/06/09 00:21:00;;;;;;;9.77;8.40;;;;;;;15.05;100.00;99841.44;5011872;28;20226;-60
2023/06/09 00:23:28;;;;;;;9.50;8.50;;;;;;;15.07;100.00;99827.41;5022379;28;20195;-59
2023/06/09 00:25:53;;;;;;;9.23;8.47;;;;;;;15.02;100.00;99826.97;5014416;28;20225;-59
2023/06/09 00:28:18;;;;;;;9.40;8.60;;;;;;;14.99;100.00;99832.34;5014681;28;20290;-60
2023/06/09 00:30:44;;;;;;;9.90;8.90;;;;;;;14.84;100.00;99834.38;5009895;28;20232;-60
2023/06/09 00:33:09;;;;;;;9.57;8.63;;;;;;;14.77;100.00;99831.44;5024840;28;20597;-60
2023/06/09 00:35:34;;;;;;;11.33;9.60;;;;;;;14.75;100.00;99827.28;5014040;28;20646;-60
2023/06/09 00:38:00;;;;;;;10.63;9.57;;;;;;;14.69;100.00;99833.78;5014889;28;20189;-60
2023/06/09 00:40:25;;;;;;;11.10;10.00;;;;;;;14.61;100.00;99833.50;5007131;28;20226;-60
2023/06/09 00:42:51;;;;;;;10.47;9.53;;;;;;;14.61;100.00;99839.50;5027152;28;20186;-60
2023/06/09 00:45:16;;;;;;;11.43;9.17;;;;;;;14.64;100.00;99844.44;5013944;28;20175;-61
2023/06/09 00:47:42;;;;;;;9.57;8.77;;;;;;;14.63;100.00;99840.19;5014040;28;20210;-60
2023/06/09 00:50:08;;;;;;;10.43;9.53;;;;;;;14.60;100.00;99835.28;5004471;28;20182;-60
2023/06/09 00:52:33;;;;;;;13.07;9.57;;;;;;;14.60;100.00;99845.63;5028738;28;20271;-59
2023/06/09 00:54:58;;;;;;;9.57;8.67;;;;;;;14.55;100.00;99850.31;5014067;28;20187;-62
2023/06/09 00:57:24;;;;;;;11.50;9.60;;;;;;;14.43;100.00;99849.47;5014471;28;20202;-60
2023/06/09 00:59:49;;;;;;;10.50;9.60;;;;;;;14.44;100.00;99845.94;5014073;28;20237;-61
2023/06/09 01:02:15;;;;;;;10.23;9.43;;;;;;;14.34;100.00;99848.41;5004546;28;20262;-61
2023/06/09 01:04:49;;;;;;;10.20;9.20;;;;;;;14.41;100.00;99842.75;5014074;28;20552;-59
2023/06/09 01:07:28;;;;;;;10.43;9.47;;;;;;;14.41;100.00;99847.94;5013848;28;20276;-60
2023/06/09 01:10:23;;;;;;;10.37;9.47;;;;;;;14.31;100.00;99846.06;5003237;28;20210;-59
2023/06/09 01:13:10;;;;;;;10.47;9.57;;;;;;;14.38;100.00;99843.00;4982834;28;20702;-60
2023/06/09 01:15:43;;;;;;;11.10;9.63;;;;;;;14.36;100.00;99838.75;5007239;28;20646;-59
2023/06/09 01:18:12;;;;;;;11.83;9.00;;;;;;;14.39;100.00;99847.22;5014186;28;20236;-59
2023/06/09 01:20:45;;;;;;;9.97;9.07;;;;;;;14.43;100.00;99843.47;5008379;28;20305;-60
2023/06/09 01:23:31;;;;;;;13.53;10.07;;;;;;;14.33;100.00;99840.75;5023687;28;20207;-60
2023/06/09 01:25:59;;;;;;;10.37;9.33;;;;;;;14.27;100.00;99842.03;5012111;28;20240;-59
2023/06/09 01:28:26;;;;;;;10.80;9.80;;;;;;;14.27;100.00;99843.78;5013557;28;20187;-60
2023/06/09 01:30:54;;;;;;;9.80;8.90;;;;;;;14.31;100.00;99842.63;5010073;28;20230;-60
2023/06/09 01:33:21;;;;;;;10.50;9.33;;;;;;;14.31;100.00;99838.28;5021902;28;20193;-59
2023/06/09 01:35:47;;;;;;;10.10;9.10;;;;;;;14.30;100.00;99840.97;5013239;28;20254;-60
2023/06/09 01:38:16;;;;;;;9.57;8.77;;;;;;;14.28;100.00;99835.91;5013054;28;20269;-60
2023/06/09 01:40:43;;;;;;;10.33;9.33;;;;;;;14.26;100.00;99835.19;5008794;28;20255;-60
2023/06/09 01:43:09;;;;;;;11.10;10.10;;;;;;;14.28;100.00;99835.09;5023532;28;20198;-60
2023/06/09 01:45:34;;;;;;;10.40;9.30;;;;;;;14.23;100.00;99832.84;5013191;28;20240;-59
2023/06/09 01:48:11;;;;;;;10.70;9.13;;;;;;;14.14;100.00;99829.19;5013115;28;20635;-60
2023/06/09 01:51:02;;;;;;;9.97;9.00;;;;;;;14.08;100.00;99829.63;5007297;28;20311;-60
2023/06/09 01:53:40;;;;;;;10.60;9.53;;;;;;;14.03;100.00;99837.72;5005954;28;20638;-60
2023/06/09 01:56:17;;;;;;;10.40;9.50;;;;;;;14.00;100.00;99831.94;5012695;28;20178;-60
2023/06/09 01:58:46;;;;;;;10.20;9.33;;;;;;;14.01;100.00;99833.59;5003884;28;20217;-60
2023/06/09 02:01:16;;;;;;;11.87;10.77;;;;;;;14.00;100.00;99835.38;5011424;28;20558;-60
2023/06/09 02:03:44;;;;;;;11.10;10.17;;;;;;;13.97;100.00;99829.59;5019182;28;20183;-60
2023/06/09 02:06:11;;;;;;;11.17;10.10;;;;;;;13.90;100.00;99831.78;5011192;28;20178;-60
2023/06/09 02:08:37;;;;;;;12.43;11.33;;;;;;;13.92;100.00;99832.50;5012881;28;20183;-60
2023/06/09 02:11:03;;;;;;;12.17;11.20;;;;;;;13.81;100.00;99828.13;5010271;28;20222;-60
2023/06/09 02:13:28;;;;;;;13.10;11.90;;;;;;;13.81;100.00;99833.28;5020377;28;20227;-61
2023/06/09 02:15:53;;;;;;;12.20;11.20;;;;;;;13.74;100.00;99836.44;5012205;28;20634;-61
2023/06/09 02:18:22;;;;;;;12.67;11.40;;;;;;;13.75;100.00;99827.75;5012810;28;20190;-60
2023/06/09 02:20:48;;;;;;;13.47;12.33;;;;;;;13.72;100.00;99819.28;5008449;28;20225;-60
2023/06/09 02:23:15;;;;;;;13.03;11.93;;;;;;;13.69;100.00;99823.84;5022177;28;20217;-60
2023/06/09 02:25:40;;;;;;;11.43;10.40;;;;;;;13.67;100.00;99820.56;5012050;28;20645;-60
2023/06/09 02:28:06;;;;;;;12.27;11.07;;;;;;;13.64;100.00;99813.00;5012413;28;20206;-60
2023/06/09 02:30:32;;;;;;;12.90;11.63;;;;;;;13.63;100.00;99813.94;5005842;28;20303;-60
2023/06/09 02:33:01;;;;;;;13.23;12.13;;;;;;;13.58;100.00;99814.25;5024021;28;20179;-60
2023/06/09 02:35:28;;;;;;;14.03;12.73;;;;;;;13.60;100.00;99811.59;5011933;28;20187;-60
2023/06/09 02:37:53;;;;;;;13.20;11.90;;;;;;;13.55;100.00;99815.31;5012561;28;20193;-60
2023/06/09 02:40:19;;;;;;;13.57;12.30;;;;;;;13.51;100.00;99815.66;5004141;28;20179;-61
2023/06/09 02:42:44;;;;;;;13.10;11.80;;;;;;;13.56;100.00;99821.31;5025348;28;20210;-60
2023/06/09 02:45:10;;;;;;;13.83;12.53;;;;;;;13.48;100.00;99824.47;5011926;28;20179;-60
2023/06/09 02:47:36;;;;;;;13.43;12.03;;;;;;;13.49;100.00;99818.31;5012357;28;20217;-60
2023/06/09 02:50:01;;;;;;;13.43;12.33;;;;;;;13.35;100.00;99824.44;5012088;28;20218;-60
2023/06/09 02:52:31;;;;;;;14.50;13.17;;;;;;;13.38;100.00;99826.03;5000985;28;20748;-61
2023/06/09 02:54:56;;;;;;;14.20;12.90;;;;;;;13.54;100.00;99816.28;5011989;28;20224;-60
2023/06/09 02:57:22;;;;;;;13.80;12.60;;;;;;;13.48;100.00;99816.69;5011695;28;20178;-61
2023/06/09 02:59:47;;;;;;;13.20;12.00;;;;;;;13.45;100.00;99827.25;5012020;28;20186;-60
2023/06/09 03:02:13;;;;;;;12.67;11.47;;;;;;;13.49;100.00;99827.84;4989888;28;20218;-61
2023/06/09 03:04:40;;;;;;;11.90;10.80;;;;;;;13.51;100.00;99819.06;5011143;28;20289;-60
2023/06/09 03:07:09;;;;;;;13.33;12.03;;;;;;;13.50;100.00;99822.56;5011444;28;20198;-60
2023/06/09 03:09:35;;;;;;;15.10;12.37;;;;;;;13.57;100.00;99825.56;5010102;28;20190;-61
2023/06/09 03:12:00;;;;;;;13.37;12.07;;;;;;;13.58;100.00;99828.94;5016316;28;20237;-61
2023/06/09 03:14:25;;;;;;;14.03;12.83;;;;;;;13.56;100.00;99831.66;5012049;28;20189;-61
2023/06/09 03:16:51;;;;;;;12.93;11.93;;;;;;;13.59;100.00;99828.84;5015385;28;20240;-60
2023/06/09 03:19:16;;;;;;;13.80;12.43;;;;;;;13.58;100.00;99834.13;5013337;28;20179;-59
2023/06/09 03:21:43;;;;;;;13.90;12.67;;;;;;;13.55;100.00;99838.56;5014443;28;20230;-61
2023/06/09 03:24:09;;;;;;;14.13;12.80;;;;;;;13.58;100.00;99832.34;5013982;28;20696;-60
2023/06/09 03:26:34;;;;;;;13.17;11.87;;;;;;;13.58;100.00;99828.94;5010939;28;20286;-61
2023/06/09 03:28:59;;;;;;;12.23;11.13;;;;;;;13.58;100.00;99829.75;5010121;28;20593;-61
2023/06/09 03:31:25;;;;;;;12.20;11.17;;;;;;;13.62;100.00;99828.63;4980853;28;20321;-60
2023/06/09 03:33:50;;;;;;;13.13;11.67;;;;;;;13.59;100.00;99835.78;5011083;28;20260;-60
2023/06/09 03:36:15;;;;;;;12.47;11.23;;;;;;;13.62;100.00;99838.97;5011159;28;20187;-60
2023/06/09 03:38:41;;;;;;;12.97;11.87;;;;;;;13.61;100.00;99841.66;5011305;28;20175;-60
2023/06/09 03:41:06;;;;;;;12.60;11.60;;;;;;;13.60;100.00;99843.41;5009428;28;20319;-61
2023/06/09 03:43:31;;;;;;;13.20;12.10;;;;;;;13.61;100.00;99847.66;5018816;28;20189;-60
2023/06/09 03:45:57;;;;;;;11.63;10.53;;;;;;;13.66;100.00;99842.97;5010978;28;20194;-60
2023/06/09 03:48:22;;;;;;;11.80;10.70;;;;;;;13.71;100.00;99842.66;5011058;28;20178;-60
2023/06/09 03:50:47;;;;;;;12.53;11.23;;;;;;;13.77;100.00;99843.94;5007161;28;20229;-60
2023/06/09 03:53:12;;;;;;;10.60;9.70;;;;;;;13.87;100.00;99838.00;5020827;28;20634;-60
2023/06/09 03:55:38;;;;;;;11.23;10.23;;;;;;;13.97;100.00;99842.53;5009550;28;20194;-60
2023/06/09 03:58:04;;;;;;;10.93;9.93;;;;;;;14.00;100.00;99843.13;5011397;28;20183;-60
2023/06/09 04:00:29;;;;;;;11.70;10.80;;;;;;;14.13;100.00;99837.88;5004865;28;20306;-61
2023/06/09 04:02:55;;;;;;;12.77;10.77;;;;;;;14.23;100.00;99832.00;5022957;28;20179;-61
2023/06/09 04:05:21;;;;;;;12.07;10.90;;;;;;;14.31;100.00;99833.13;5010903;28;20190;-61
2023/06/09 04:07:46;;;;;;;10.53;9.43;;;;;;;14.35;100.00;99828.50;5011139;28;20650;-61
2023/06/09 04:10:11;;;;;;;10.43;9.50;;;;;;;14.40;100.00;99839.38;5002409;28;20483;-61
2023/06/09 04:12:38;;;;;;;10.60;9.50;;;;;;;14.49;100.00;99848.19;5024837;28;20226;-61
2023/06/09 04:15:04;;;;;;;10.27;9.20;;;;;;;14.56;100.00;99840.78;5011027;28;20213;-61
2023/06/09 04:17:29;;;;;;;10.27;9.47;;;;;;;14.54;100.00;99835.72;5010756;28;20705;-61
2023/06/09 04:19:54;;;;;;;10.87;9.77;;;;;;;14.64;100.00;99838.44;5010100;28;20186;-61
2023/06/09 04:22:20;;;;;;;10.17;9.07;;;;;;;14.64;100.00;99846.22;5016032;28;20614;-61
2023/06/09 04:24:45;;;;;;;9.57;8.50;;;;;;;14.62;100.00;99854.06;5013632;28;20559;-61
2023/06/09 04:27:15;;;;;;;11.63;10.43;;;;;;;14.72;100.00;99846.47;5014108;28;20267;-61
2023/06/09 04:29:40;;;;;;;12.93;9.00;;;;;;;14.85;100.00;99849.78;5014816;28;20188;-62
2023/06/09 04:32:07;;;;;;;9.30;8.50;;;;;;;14.99;100.00;99846.13;5019955;28;20225;-61
2023/06/09 04:34:38;;;;;;;10.37;9.47;;;;;;;15.01;100.00;99843.44;5014472;28;20780;-61
2023/06/09 04:37:06;;;;;;;9.60;8.70;;;;;;;15.19;100.00;99843.75;5014017;28;20186;-61
2023/06/09 04:39:31;;;;;;;9.23;8.40;;;;;;;15.35;100.00;99840.78;5014590;28;20179;-60
2023/06/09 04:41:56;;;;;;;8.87;8.07;;;;;;;15.52;100.00;99836.03;5019053;28;20218;-60
2023/06/09 04:44:23;;;;;;;8.70;7.90;;;;;;;15.59;100.00;99840.63;5015158;28;20218;-60
2023/06/09 04:46:49;;;;;;;10.77;7.43;;;;;;;15.72;100.00;99843.03;5013756;28;20608;-60
2023/06/09 04:49:15;;;;;;;9.67;7.97;;;;;;;15.94;100.00;99842.16;5014373;28;20265;-60
2023/06/09 04:51:49;;;;;;;9.87;7.60;;;;;;;16.01;100.00;99836.47;5016707;28;20248;-59
2023/06/09 04:54:18;;;;;;;7.97;7.30;;;;;;;16.08;100.00;99835.03;5015577;28;20264;-60
2023/06/09 04:56:45;;;;;;;10.13;6.67;;;;;;;16.27;100.00;99840.38;5013580;28;20596;-59
2023/06/09 04:59:11;;;;;;;9.40;7.00;;;;;;;16.49;100.00;99845.53;5014070;28;20561;-60
2023/06/09 05:01:37;;;;;;;9.60;7.10;;;;;;;16.47;100.00;99837.84;5016035;28;20285;-60
2023/06/09 05:04:03;;;;;;;8.33;7.17;;;;;;;16.67;100.00;99844.00;5017202;28;20193;-60
2023/06/09 05:06:28;;;;;;;8.60;7.47;;;;;;;16.90;100.00;99843.81;5012995;28;20608;-60
2023/06/09 05:08:55;;;;;;;7.57;6.60;;;;;;;17.07;100.00;99843.22;5014228;28;20236;-60
2023/06/09 05:11:20;;;;;;;6.87;6.27;;;;;;;17.22;100.00;99841.06;5013850;28;20224;-60
2023/06/09 05:13:46;;;;;;;8.00;7.03;;;;;;;17.41;100.00;99847.25;5018991;28;20222;-60
2023/06/09 05:16:12;;;;;;;10.70;7.50;;;;;;;17.55;100.00;99843.44;5013307;28;20630;-61
2023/06/09 05:18:37;;;;;;;7.57;6.40;;;;;;;17.67;100.00;99841.56;5013821;28;20708;-61
2023/06/09 05:21:03;;;;;;;7.27;5.97;;;;;;;17.51;100.00;99852.47;5011266;28;20214;-60
2023/06/09 05:23:28;;;;;;;5.93;5.40;;;;;;;17.57;100.00;99846.75;5021546;28;20211;-60
2023/06/09 05:25:53;;;;;;;9.87;6.13;;;;;;;17.59;100.00;99856.06;5013115;28;20177;-61
2023/06/09 05:28:18;;;;;;;9.87;5.60;;;;;;;17.59;100.00;99853.44;5012205;28;20430;-60
2023/06/09 05:30:44;;;;;;;9.63;5.47;;;;;;;17.48;100.00;99853.56;5008958;28;20269;-60
2023/06/09 05:33:10;;;;;;;6.60;5.87;;;;;;;17.72;100.00;99841.97;5023486;28;20190;-61
2023/06/09 05:35:35;;;;;;;6.80;5.70;;;;;;;17.85;100.00;99850.31;5012177;28;20179;-60
2023/06/09 05:38:00;;;;;;;8.03;5.17;;;;;;;18.18;100.00;99850.06;5013343;28;20194;-60
2023/06/09 05:40:25;;;;;;;7.80;5.83;;;;;;;18.31;100.00;99849.78;5005966;28;20233;-61
2023/06/09 05:42:51;;;;;;;6.23;5.73;;;;;;;18.63;100.00;99849.41;5025679;28;20550;-60
2023/06/09 05:45:16;;;;;;;5.80;5.30;;;;;;;18.61;100.00;99850.53;5012762;28;20305;-60
2023/06/09 05:47:42;;;;;;;8.70;5.80;;;;;;;18.87;100.00;99850.69;5013005;28;20206;-60
2023/06/09 05:50:07;;;;;;;8.00;6.00;;;;;;;18.85;100.00;99850.84;5003292;28;20261;-60
2023/06/09 05:52:32;;;;;;;6.03;5.43;;;;;;;18.85;100.00;99852.63;5027407;28;20175;-60
2023/06/09 05:54:58;;;;;;;5.27;4.87;;;;;;;19.49;100.00;99850.13;5012781;28;20190;-61
2023/06/09 05:57:25;;;;;;;6.47;5.07;;;;;;;19.82;100.00;99847.78;5013140;28;20241;-60
2023/06/09 05:59:51;;;;;;;6.20;5.70;;;;;;;20.05;100.00;99856.00;5012849;28;20262;-60
2023/06/09 06:02:16;;;;;;;4.77;4.30;;;;;;;19.90;100.00;99850.50;5018085;28;20657;-60
2023/06/09 06:04:42;;;;;;;4.87;4.47;;;;;;;20.10;100.00;99853.75;5012841;28;20179;-59
2023/06/09 06:07:07;;;;;;;6.13;5.00;;;;;;;20.16;100.00;99858.38;5012250;28;20198;-60
2023/06/09 06:09:32;;;;;;;4.90;4.50;;;;;;;21.02;100.00;99868.22;5013191;28;20552;-60
2023/06/09 06:11:57;;;;;;;4.90;4.40;;;;;;;21.47;100.00;99864.44;5017369;28;20252;-61
2023/06/09 06:14:23;;;;;;;5.07;4.33;;;;;;;21.90;96.21;99865.13;5013323;28;20264;-61
2023/06/09 06:16:48;;;;;;;5.33;4.77;;;;;;;21.93;94.70;99867.44;5012587;28;20301;-61
2023/06/09 06:19:13;;;;;;;4.53;4.23;;;;;;;22.11;94.53;99866.47;5012764;28;20273;-61
2023/06/09 06:21:42;;;;;;;5.27;4.73;;;;;;;22.45;91.46;99873.34;5015231;28;20319;-61
2023/06/09 06:24:08;;;;;;;5.30;4.60;;;;;;;22.45;91.30;99875.97;5015353;28;20206;-61
2023/06/09 06:26:34;;;;;;;8.97;4.60;;;;;;;22.54;90.35;99879.38;5012294;28;20187;-61
2023/06/09 06:29:00;;;;;;;4.80;4.37;;;;;;;23.14;88.03;99885.06;5012616;28;20201;-62
2023/06/09 06:31:28;;;;;;;8.70;5.40;;;;;;;22.92;89.28;99887.44;5013500;28;20280;-61
2023/06/09 06:33:53;;;;;;;4.80;4.40;;;;;;;23.65;82.44;99882.03;5016694;28;20249;-59
2023/06/09 06:36:21;;;;;;;9.20;4.90;;;;;;;23.55;83.87;99886.69;5011691;28;20182;-60
2023/06/09 06:38:46;;;;;;;7.10;5.80;;;;;;;23.23;85.92;99883.25;5012440;28;20210;-60
2023/06/09 06:41:12;;;;;;;4.95;4.55;;;;;;;24.10;78.92;99885.66;5011429;28;20261;-59
2023/06/09 06:43:37;;;;;;;5.45;4.20;;;;;;;23.78;80.84;99879.63;5018512;28;20178;-60
2023/06/09 06:46:02;;;;;;;5.35;3.70;;;;;;;24.20;77.95;99881.94;5011224;28;20560;-60
2023/06/09 06:48:28;;;;;;;4.63;3.95;;;;;;;24.48;76.26;99879.56;5012099;28;20190;-60
2023/06/09 06:50:53;;;;;;;4.95;3.95;;;;;;;24.44;74.67;99886.16;5008940;28;20226;-61
2023/06/09 06:53:19;;;;;;;7.32;4.70;;;;;;;24.13;75.46;99890.53;5020800;28;20595;-61
2023/06/09 06:55:44;;;;;;;4.78;3.47;;;;;;;23.92;77.62;99887.78;5011928;28;20194;-60
2023/06/09 06:58:09;;;;;;;3.95;3.65;;;;;;;24.56;74.25;99899.69;5012378;28;20190;-60
2023/06/09 07:00:35;;;;;;;4.07;3.67;;;;;;;25.16;69.68;99897.88;4991654;28;20706;-61
2023/06/09 07:03:00;;;;;;;4.70;4.30;;;;;;;24.98;69.53;99900.88;4998654;28;20210;-61
2023/06/09 07:05:25;;;;;;;5.22;3.90;;;;;;;26.06;62.19;99902.88;5011622;28;20191;-61
2023/06/09 07:07:51;;;;;;;4.40;4.00;;;;;;;25.53;64.88;99903.19;5012047;28;20313;-59
2023/06/09 07:10:16;;;;;;;4.03;3.72;;;;;;;25.51;66.46;99902.53;5003697;28;20214;-60
2023/06/09 07:12:41;;;;;;;4.45;4.05;;;;;;;25.56;64.09;99903.59;5024932;28;20589;-60
2023/06/09 07:15:07;;;;;;;4.18;3.88;;;;;;;25.71;62.28;99897.47;5002243;28;20218;-60
2023/06/09 07:17:33;;;;;;;5.68;4.00;;;;;;;26.33;59.70;99898.63;5025909;28;20183;-60
2023/06/09 07:19:58;;;;;;;5.00;4.35;;;;;;;25.46;64.56;99903.09;5010265;28;20190;-60
2023/06/09 07:22:24;;;;;;;4.70;3.80;;;;;;;26.64;58.53;99899.22;5016494;28;20225;-60
2023/06/09 07:24:49;;;;;;;5.72;3.90;;;;;;;26.17;59.05;99897.09;5011911;28;20796;-60
2023/06/09 07:27:15;;;;;;;4.47;4.07;;;;;;;26.64;56.20;99900.03;5011200;28;20592;-60
2023/06/09 07:29:42;;;;;;;4.07;3.67;;;;;;;28.03;51.58;99908.63;5011920;28;20201;-60
2023/06/09 07:32:08;;;;;;;8.77;4.43;;;;;;;28.23;49.47;99904.38;4980470;28;20696;-61
2023/06/09 07:34:35;;;;;;;4.72;3.75;;;;;;;28.45;47.67;99913.69;5011583;28;20187;-60
2023/06/09 07:37:03;;;;;;;7.22;3.90;;;;;;;28.38;47.61;99907.63;5011359;28;20297;-60
2023/06/09 07:39:29;;;;;;;3.90;3.60;;;;;;;28.38;48.83;99909.44;5012122;28;20584;-60
2023/06/09 07:41:54;;;;;;;4.32;3.92;;;;;;;26.86;53.50;99907.91;5003407;28;20234;-60
2023/06/09 07:44:20;;;;;;;4.63;4.00;;;;;;;26.03;59.73;99906.66;5012413;28;20202;-61
2023/06/09 07:46:45;;;;;;;5.03;4.30;;;;;;;26.90;56.59;99903.84;5003751;28;20191;-61
2023/06/09 07:49:11;;;;;;;5.03;3.70;;;;;;;27.27;53.68;99908.88;5005856;28;20654;-60
2023/06/09 07:51:37;;;;;;;5.03;4.20;;;;;;;26.62;56.33;99907.34;5013323;28;20265;-61
2023/06/09 07:54:05;;;;;;;4.15;3.80;;;;;;;27.93;53.29;99905.56;5015004;28;20179;-60
2023/06/09 07:56:30;;;;;;;4.45;4.03;;;;;;;29.55;44.87;99911.31;5010845;28;20198;-61
2023/06/09 07:58:57;;;;;;;5.75;3.75;;;;;;;29.86;44.22;99915.00;5016304;28;20174;-62
2023/06/09 08:01:23;;;;;;;6.78;3.95;;;;;;;29.67;43.09;99919.38;5012989;28;20308;-62
2023/06/09 08:03:48;;;;;;;5.03;4.28;;;;;;;30.22;42.06;99927.56;5020115;28;20266;-62
2023/06/09 08:06:14;;;;;;;4.95;3.70;;;;;;;29.77;42.98;99915.25;5014906;28;20195;-62
2023/06/09 08:08:39;;;;;;;6.22;4.20;;;;;;;29.27;44.97;99915.94;5015300;28;20233;-61
2023/06/09 08:11:04;;;;;;;5.75;3.75;;;;;;;29.87;43.96;99914.75;5013159;28;20661;-61
2023/06/09 08:13:30;;;;;;;5.88;4.00;;;;;;;29.68;42.18;99915.72;5022362;28;20238;-61
2023/06/09 08:15:55;;;;;;;4.63;3.80;;;;;;;29.84;41.83;99919.69;5014389;28;20187;-60
2023/06/09 08:18:20;;;;;;;6.50;4.10;;;;;;;29.59;42.68;99918.59;5014752;28;20187;-61
2023/06/09 08:20:46;;;;;;;3.88;3.58;;;;;;;30.59;40.93;99916.22;5005718;28;20230;-60
2023/06/09 08:23:11;;;;;;;6.15;4.13;;;;;;;30.51;40.04;99908.53;5016341;28;20187;-60
2023/06/09 08:25:37;;;;;;;4.32;3.92;;;;;;;30.52;39.69;99916.28;5013148;28;20207;-60
2023/06/09 08:28:02;;;;;;;5.78;3.22;;;;;;;29.78;39.39;99918.69;5015018;28;20206;-61
2023/06/09 08:30:28;;;;;;;5.50;3.47;;;;;;;29.51;40.79;99910.09;5007499;28;20284;-61
2023/06/09 08:32:53;;;;;;;5.80;3.60;;;;;;;30.35;39.73;99902.75;5026776;28;20191;-61
2023/06/09 08:35:20;;;;;;;4.18;3.70;;;;;;;29.71;39.58;99899.41;5014488;28;20492;-60
2023/06/09 08:37:47;;;;;;;4.10;3.25;;;;;;;29.47;40.22;99907.06;5014800;28;20186;-60
2023/06/09 08:40:13;;;;;;;7.43;3.55;;;;;;;30.81;36.67;99910.47;5005702;28;20179;-61
2023/06/09 08:42:39;;;;;;;3.88;2.85;;;;;;;30.18;38.93;99904.34;5029048;28;20190;-61
2023/06/09 08:45:05;;;;;;;4.22;3.38;;;;;;;30.51;38.57;99903.25;5014773;28;20261;-60
2023/06/09 08:47:33;;;;;;;3.63;3.33;;;;;;;30.25;38.14;99897.97;5014495;28;20748;-60
2023/06/09 08:49:59;;;;;;;5.22;3.13;;;;;;;30.02;37.70;99906.53;5014594;28;20261;-60
2023/06/09 08:52:28;;;;;;;3.58;3.28;;;;;;;29.28;39.36;99901.63;5019672;28;20336;-60
2023/06/09 08:54:59;;;;;;;3.75;3.35;;;;;;;29.35;40.23;99892.88;5014226;28;20175;-61
2023/06/09 08:57:25;;;;;;;3.45;3.13;;;;;;;30.29;38.09;99885.06;5014364;28;20198;-60
2023/06/09 08:59:52;;;;;;;5.15;3.17;;;;;;;30.11;37.62;99883.19;5013914;28;20179;-60
2023/06/09 09:02:18;;;;;;;3.50;3.20;;;;;;;29.99;38.85;99890.22;5003900;28;20229;-61
2023/06/09 09:04:43;;;;;;;6.82;3.67;;;;;;;30.05;39.18;99884.06;5014090;28;20191;-60
2023/06/09 09:07:11;;;;;;;5.22;3.42;;;;;;;29.48;38.69;99882.19;5013824;28;20203;-61
2023/06/09 09:09:37;;;;;;;3.22;3.00;;;;;;;28.70;41.01;99873.38;5012857;28;20190;-61
2023/06/09 09:12:02;;;;;;;4.03;3.55;;;;;;;28.45;40.98;99874.03;5005934;28;20242;-61
2023/06/09 09:14:27;;;;;;;4.05;3.50;;;;;;;29.12;40.80;99873.81;5013929;28;20183;-61
2023/06/09 09:16:53;;;;;;;5.97;3.50;;;;;;;30.89;37.82;99876.44;5013923;28;20187;-60
2023/06/09 09:19:30;;;;;;;3.92;3.17;;;;;;;30.63;35.52;99882.88;5014149;28;20175;-59
2023/06/09 09:21:56;;;;;;;3.88;3.50;;;;;;;29.16;38.26;99876.84;5018261;28;20320;-60
2023/06/09 09:24:29;;;;;;;5.50;3.35;;;;;;;29.50;37.83;99885.47;5014814;28;20311;-61
2023/06/09 09:26:56;;;;;;;3.50;3.20;;;;;;;28.84;39.45;99871.53;5013569;28;20203;-61
2023/06/09 09:29:26;;;;;;;5.25;3.55;;;;;;;29.41;38.66;99873.47;5014529;28;20193;-61
2023/06/09 09:31:58;;;;;;;5.63;3.63;;;;;;;29.82;37.24;99874.84;5018026;28;20225;-61
2023/06/09 09:34:25;;;;;;;4.05;3.33;;;;;;;30.34;36.23;99871.13;5014522;28;20252;-61
2023/06/09 09:36:54;;;;;;;3.95;3.00;;;;;;;31.61;33.22;99871.41;5013376;28;20187;-61
2023/06/09 09:39:20;;;;;;;7.53;3.25;;;;;;;30.20;36.14;99871.25;5014199;28;20257;-61
2023/06/09 09:42:07;;;;;;;3.63;3.33;;;;;;;29.54;37.79;99870.75;5016770;28;20279;-61
2023/06/09 09:44:40;;;;;;;4.10;3.10;;;;;;;30.35;35.57;99867.44;5013609;28;20186;-61
2023/06/09 09:47:08;;;;;;;3.58;3.17;;;;;;;31.26;33.98;99862.31;5001157;28;20676;-60
2023/06/09 09:49:34;;;;;;;4.07;3.30;;;;;;;32.07;32.75;99856.56;5013447;28;20244;-60
2023/06/09 09:52:00;;;;;;;3.15;2.95;;;;;;;31.59;32.04;99854.88;5018520;28;20312;-60
2023/06/09 09:54:27;;;;;;;3.53;2.80;;;;;;;31.33;33.80;99849.75;5013335;28;20213;-60
2023/06/09 09:56:55;;;;;;;3.38;3.08;;;;;;;32.64;32.46;99855.91;5012999;28;20646;-60
2023/06/09 09:59:20;;;;;;;3.22;2.90;;;;;;;32.85;31.19;99848.34;5013190;28;20286;-60
2023/06/09 10:01:48;;;;;;;3.10;2.72;;;;;;;33.07;29.67;99858.31;5016668;28;20624;-61
2023/06/09 10:04:13;;;;;;;3.13;2.63;;;;;;;33.34;29.95;99855.91;5014946;28;20190;-61
2023/06/09 10:06:39;;;;;;;4.00;3.22;;;;;;;32.91;30.10;99850.06;5012703;28;20284;-61
2023/06/09 10:09:05;;;;;;;2.72;2.53;;;;;;;34.03;28.04;99860.19;5013482;28;20598;-61
2023/06/09 10:11:34;;;;;;;3.22;2.92;;;;;;;33.47;29.34;99852.13;5014552;28;20690;-61
2023/06/09 10:14:00;;;;;;;3.38;3.10;;;;;;;33.53;30.02;99851.16;5016828;28;20231;-61
2023/06/09 10:16:27;;;;;;;4.53;3.03;;;;;;;32.90;29.75;99852.97;5012805;28;20265;-60
2023/06/09 10:18:53;;;;;;;2.92;2.72;;;;;;;33.01;30.50;99844.13;5012929;28;20214;-60
2023/06/09 10:21:20;;;;;;;3.25;2.95;;;;;;;32.26;31.92;99846.59;5012610;28;20316;-60
2023/06/09 10:23:45;;;;;;;3.75;2.80;;;;;;;33.60;30.37;99850.97;5018236;28;20281;-60
2023/06/09 10:26:11;;;;;;;3.90;2.80;;;;;;;33.03;29.84;99825.22;5003393;28;20673;-61
2023/06/09 10:28:37;;;;;;;3.20;2.88;;;;;;;33.86;29.40;99832.75;5008904;28;21389;-61
2023/06/09 10:31:04;;;;;;;3.10;2.83;;;;;;;33.90;29.21;99837.34;5010523;28;20226;-61
2023/06/09 10:33:33;;;;;;;3.17;2.90;;;;;;;31.98;29.76;99831.34;5019933;28;20179;-61
2023/06/09 10:35:59;;;;;;;4.18;3.05;;;;;;;31.92;31.13;99826.97;5012665;28;20651;-61
2023/06/09 10:38:29;;;;;;;4.50;3.60;;;;;;;31.61;31.99;99827.03;5012259;28;20548;-61
2023/06/09 10:41:12;;;;;;;3.30;2.83;;;;;;;30.26;33.70;99827.13;5009348;28;20308;-60
2023/06/09 10:44:25;;;;;;;4.80;3.63;;;;;;;28.23;37.09;99819.75;5018907;28;20213;-60
2023/06/09 10:46:52;;;;;;;4.88;3.05;;;;;;;27.12;39.53;99819.28;5012049;28;20202;-61
2023/06/09 10:49:24;;;;;;;3.85;3.38;;;;;;;26.82;42.88;99806.41;5012657;28;20648;-59
2023/06/09 10:51:49;;;;;;;4.88;3.55;;;;;;;26.82;43.13;99807.22;5015627;28;20638;-60
2023/06/09 10:54:15;;;;;;;8.82;3.13;;;;;;;26.61;44.90;99802.84;5013961;28;20178;-61
2023/06/09 10:57:02;;;;;;;4.30;3.90;;;;;;;26.41;45.29;99792.19;5011676;28;20191;-60
2023/06/09 10:59:29;;;;;;;4.13;3.58;;;;;;;26.71;46.76;99792.72;5012276;28;20190;-59
2023/06/09 11:02:03;;;;;;;4.32;3.65;;;;;;;26.81;44.59;99797.66;4991414;28;20734;-60
2023/06/09 11:04:38;;;;;;;5.07;3.92;;;;;;;26.56;43.86;99799.97;5011942;28;20257;-60
2023/06/09 11:07:14;;;;;;;3.67;3.38;;;;;;;26.63;44.05;99792.91;5011735;28;20224;-60
2023/06/09 11:09:40;;;;;;;5.82;3.35;;;;;;;27.04;44.13;99789.41;5011663;28;20598;-60
2023/06/09 11:12:08;;;;;;;4.53;3.67;;;;;;;27.00;43.25;99795.28;5017334;28;20630;-60
2023/06/09 11:14:51;;;;;;;3.80;3.50;;;;;;;27.24;41.97;99786.00;5011937;28;20573;-60
2023/06/09 11:17:19;;;;;;;3.88;3.33;;;;;;;26.87;41.70;99788.16;5016797;28;20239;-60
2023/06/09 11:19:45;;;;;;;5.03;3.40;;;;;;;26.46;39.47;99781.88;5012435;28;20638;-60
2023/06/09 11:22:12;;;;;;;5.93;3.10;;;;;;;26.62;38.57;99796.56;5017353;28;20320;-60
2023/06/09 11:24:48;;;;;;;5.28;3.35;;;;;;;26.76;38.48;99789.53;5010810;28;20243;-60